createdAt,value
2019-04-03T00:00:14.893Z,28.3
2019-04-03T00:01:08.088Z,28.2
2019-04-03T00:01:55.356Z,28.1
2019-04-03T00:02:44.390Z,28.1
2019-04-03T00:03:38.076Z,28
2019-04-03T00:04:24.465Z,27.9
2019-04-03T00:06:08.573Z,27.7
2019-04-03T00:06:54.430Z,27.7
2019-04-03T00:07:45.925Z,27.6
2019-04-03T00:08:50.050Z,27.5
2019-04-03T00:09:24.567Z,27.4
2019-04-03T00:10:15.833Z,27.3
2019-04-03T00:11:10.213Z,27.3
2019-04-03T00:11:55.324Z,27.2
2019-04-03T00:12:49.813Z,27.1
2019-04-03T00:13:36.352Z,27
2019-04-03T00:14:26.061Z,26.9
2019-04-03T00:15:18.827Z,26.9
2019-04-03T00:16:06.125Z,26.8
2019-04-03T00:16:56.778Z,26.8
2019-04-03T00:17:49.502Z,26.7
2019-04-03T00:18:36.093Z,26.6
2019-04-03T00:19:26.102Z,26.5
2019-04-03T00:20:17.983Z,26.1
2019-04-03T00:21:06.597Z,26.3
2019-04-03T00:21:59.184Z,27.1
2019-04-03T00:22:54.159Z,27.9
2019-04-03T00:23:36.700Z,28.6
2019-04-03T00:24:30.154Z,29
2019-04-03T00:25:16.484Z,29.4
2019-04-03T00:26:07.253Z,29.8
2019-04-03T00:27:00.306Z,30.1
2019-04-03T00:27:46.729Z,30.4
2019-04-03T00:28:36.951Z,30.8
2019-04-03T00:29:30.116Z,31
2019-04-03T00:30:17.492Z,31.3
2019-04-03T00:31:08.051Z,30.5
2019-04-03T00:32:00.904Z,30.4
2019-04-03T00:32:47.495Z,30.3
2019-04-03T00:33:37.189Z,30.1
2019-04-03T00:34:30.288Z,29.9
2019-04-03T00:35:17.330Z,29.8
2019-04-03T00:36:08.221Z,29.7
2019-04-03T00:37:00.929Z,29.6
2019-04-03T00:37:47.846Z,29.5
2019-04-03T00:38:37.832Z,29.4
2019-04-03T00:39:30.450Z,29.4
2019-04-03T00:40:18.567Z,29.3
2019-04-03T00:41:08.412Z,29.3
2019-04-03T00:42:00.633Z,29.3
2019-04-03T00:42:48.260Z,29.3
2019-04-03T00:43:38.483Z,29.2
2019-04-03T00:44:31.110Z,29.2
2019-04-03T00:45:18.369Z,29.1
2019-04-03T00:46:08.123Z,29.1
2019-04-03T00:47:01.735Z,29.1
2019-04-03T00:47:47.933Z,29
2019-04-03T00:48:39.073Z,28.9
2019-04-03T00:49:31.995Z,28.9
2019-04-03T00:50:18.766Z,28.8
2019-04-03T00:51:09.855Z,28.8
2019-04-03T00:52:01.574Z,28.8
2019-04-03T00:52:49.726Z,28.6
2019-04-03T00:53:38.577Z,28.6
2019-04-03T00:54:35.830Z,28.5
2019-04-03T00:55:19.766Z,28.4
2019-04-03T00:56:09.410Z,28.4
2019-04-03T00:57:02.258Z,28.3
2019-04-03T00:57:50.312Z,28.2
2019-04-03T00:58:39.508Z,28.1
2019-04-03T00:59:32.916Z,28.1
2019-04-03T01:00:19.038Z,28
2019-04-03T01:01:09.708Z,27.9
2019-04-03T01:02:49.393Z,27.8
2019-04-03T01:03:39.704Z,27.7
2019-04-03T01:04:32.950Z,27.6
2019-04-03T01:05:20.560Z,27.5
2019-04-03T01:06:09.806Z,27.4
2019-04-03T01:07:02.927Z,27.4
2019-04-03T01:07:51.025Z,27.3
2019-04-03T01:08:39.794Z,27.2
2019-04-03T01:09:33.489Z,27.1
2019-04-03T01:10:19.964Z,27.1
2019-04-03T01:11:10.060Z,27
2019-04-03T01:12:03.128Z,26.9
2019-04-03T01:12:50.542Z,26.8
2019-04-03T01:13:40.764Z,26.8
2019-04-03T01:14:34.219Z,26.7
2019-04-03T01:15:20.901Z,26.6
2019-04-03T01:16:11.274Z,26.5
2019-04-03T01:17:04.711Z,25.9
2019-04-03T01:17:50.889Z,26.7
2019-04-03T01:18:42.993Z,27.4
2019-04-03T01:19:31.337Z,28.1
2019-04-03T01:20:20.049Z,28.6
2019-04-03T01:21:13.694Z,29
2019-04-03T01:22:00.274Z,29.4
2019-04-03T01:22:50.561Z,29.7
2019-04-03T01:23:44.071Z,30
2019-04-03T01:24:31.359Z,30.3
2019-04-03T01:25:20.462Z,30.6
2019-04-03T01:26:15.062Z,30.9
2019-04-03T01:27:01.846Z,31.2
2019-04-03T01:27:52.078Z,30.8
2019-04-03T01:28:45.235Z,30.3
2019-04-03T01:29:31.156Z,30.3
2019-04-03T01:30:22.776Z,30.1
2019-04-03T01:31:14.106Z,29.9
2019-04-03T01:32:01.419Z,29.8
2019-04-03T01:32:55.098Z,29.6
2019-04-03T01:33:42.323Z,29.6
2019-04-03T01:34:31.911Z,29.4
2019-04-03T01:35:25.323Z,29.4
2019-04-03T01:36:12.191Z,29.3
2019-04-03T01:37:01.923Z,29.3
2019-04-03T01:37:54.790Z,29.3
2019-04-03T01:38:43.333Z,29.2
2019-04-03T01:39:31.733Z,29.2
2019-04-03T01:40:25.514Z,29.1
2019-04-03T01:41:12.725Z,29.1
2019-04-03T01:42:02.422Z,29.1
2019-04-03T01:42:55.975Z,29
2019-04-03T01:43:41.755Z,29
2019-04-03T01:44:34.013Z,28.9
2019-04-03T01:45:25.221Z,28.9
2019-04-03T01:46:13.062Z,28.8
2019-04-03T01:47:05.520Z,28.8
2019-04-03T01:47:51.986Z,28.8
2019-04-03T01:48:42.823Z,28.7
2019-04-03T01:49:36.525Z,28.6
2019-04-03T01:50:22.970Z,28.6
2019-04-03T01:51:12.397Z,28.5
2019-04-03T01:52:06.952Z,28.4
2019-04-03T01:52:52.710Z,28.3
2019-04-03T01:53:43.067Z,28.3
2019-04-03T01:54:36.888Z,28.2
2019-04-03T01:55:23.057Z,28.1
2019-04-03T01:56:13.855Z,28.1
2019-04-03T01:57:07.617Z,27.9
2019-04-03T01:57:53.399Z,27.9
2019-04-03T01:59:34.359Z,27.8
2019-04-03T02:00:23.084Z,27.6
2019-04-03T02:01:16.534Z,27.6
2019-04-03T02:02:03.759Z,27.5
2019-04-03T02:02:54.084Z,27.4
2019-04-03T02:03:46.916Z,27.3
2019-04-03T02:04:34.400Z,27.3
2019-04-03T02:05:23.477Z,27.2
2019-04-03T02:06:17.418Z,27.1
2019-04-03T02:07:03.677Z,27
2019-04-03T02:07:54.327Z,26.9
2019-04-03T02:08:47.174Z,26.9
2019-04-03T02:09:33.576Z,26.8
2019-04-03T02:10:26.319Z,26.8
2019-04-03T02:11:13.830Z,26.7
2019-04-03T02:12:05.328Z,26.6
2019-04-03T02:12:58.309Z,26
2019-04-03T02:13:44.791Z,26.6
2019-04-03T02:14:34.821Z,27.3
2019-04-03T02:15:28.216Z,27.9
2019-04-03T02:16:14.835Z,28.5
2019-04-03T02:17:05.166Z,28.9
2019-04-03T02:17:58.046Z,29.2
2019-04-03T02:18:45.956Z,29.5
2019-04-03T02:19:35.845Z,29.8
2019-04-03T02:20:29.229Z,29.4
2019-04-03T02:21:15.358Z,28.2
2019-04-03T02:22:06.534Z,26.5
2019-04-03T02:22:55.268Z,26.1
2019-04-03T02:23:45.695Z,26
2019-04-03T02:24:38.950Z,27
2019-04-03T02:25:25.425Z,28
2019-04-03T02:26:15.826Z,28.7
2019-04-03T02:27:08.126Z,29.2
2019-04-03T02:27:54.965Z,29.6
2019-04-03T02:28:44.648Z,30
2019-04-03T02:29:34.956Z,30.4
2019-04-03T02:30:26.181Z,30.7
2019-04-03T02:31:22.198Z,31
2019-04-03T02:32:06.241Z,30.3
2019-04-03T02:33:02.193Z,30.2
2019-04-03T02:33:46.311Z,30.2
2019-04-03T02:34:42.200Z,29.9
2019-04-03T02:35:26.315Z,29.8
2019-04-03T02:36:21.550Z,29.6
2019-04-03T02:37:06.515Z,29.5
2019-04-03T02:37:58.713Z,29.4
2019-04-03T02:38:47.036Z,29.3
2019-04-03T02:39:36.285Z,29.3
2019-04-03T02:40:26.991Z,29.3
2019-04-03T02:41:16.195Z,29.2
2019-04-03T02:42:13.161Z,29.1
2019-04-03T02:42:57.307Z,29.1
2019-04-03T02:43:53.318Z,29.1
2019-04-03T02:44:37.634Z,29.1
2019-04-03T02:45:32.755Z,29
2019-04-03T02:46:18.120Z,29
2019-04-03T02:47:09.939Z,28.9
2019-04-03T02:47:58.440Z,28.9
2019-04-03T02:48:46.678Z,28.9
2019-04-03T02:49:36.684Z,28.8
2019-04-03T02:50:28.781Z,28.8
2019-04-03T02:51:22.237Z,28.7
2019-04-03T02:52:08.132Z,28.6
2019-04-03T02:53:04.276Z,28.6
2019-04-03T02:53:49.099Z,28.5
2019-04-03T02:54:43.751Z,28.4
2019-04-03T02:55:27.942Z,28.4
2019-04-03T02:56:22.066Z,28.3
2019-04-03T02:57:08.281Z,28.3
2019-04-03T02:58:14.875Z,28.2
2019-04-03T02:58:48.673Z,28.1
2019-04-03T02:59:38.772Z,28.1
2019-04-03T03:00:35.126Z,27.9
2019-04-03T03:01:19.621Z,27.9
2019-04-03T03:02:58.311Z,27.8
2019-04-03T03:03:53.722Z,27.7
2019-04-03T03:07:19.393Z,27.3
2019-04-03T03:08:14.096Z,27.3
2019-04-03T03:08:59.948Z,27.2
2019-04-03T03:09:56.005Z,27.1
2019-04-03T03:10:39.694Z,27
2019-04-03T03:11:33.928Z,27
2019-04-03T03:12:19.045Z,26.9
2019-04-03T03:13:11.593Z,26.8
2019-04-03T03:14:00.139Z,26.7
2019-04-03T03:14:49.774Z,26.6
2019-04-03T03:15:46.733Z,26.5
2019-04-03T03:16:29.660Z,25.8
2019-04-03T03:17:24.717Z,26.3
2019-04-03T03:18:10.423Z,27.2
2019-04-03T03:19:05.282Z,27.8
2019-04-03T03:19:50.337Z,28.3
2019-04-03T03:20:45.601Z,28.6
2019-04-03T03:21:30.008Z,29.1
2019-04-03T03:22:25.890Z,29.3
2019-04-03T03:23:08.895Z,29.7
2019-04-03T03:24:05.890Z,29.9
2019-04-03T03:24:50.701Z,30.3
2019-04-03T03:25:41.756Z,30.4
2019-04-03T03:26:30.127Z,30.7
2019-04-03T03:27:20.456Z,30.9
2019-04-03T03:28:15.327Z,30.6
2019-04-03T03:29:28.717Z,30.1
2019-04-03T03:29:51.186Z,30.1
2019-04-03T03:31:19.687Z,29.9
2019-04-03T03:33:39.124Z,29.5
2019-04-03T03:34:11.118Z,29.3
2019-04-03T03:35:58.988Z,29.3
2019-04-03T03:36:37.750Z,29.1
2019-04-03T03:37:18.245Z,29.1
2019-04-03T03:37:54.042Z,29
2019-04-03T03:38:50.424Z,29
2019-04-03T03:39:35.509Z,29
2019-04-03T03:40:25.395Z,28.9
2019-04-03T03:41:15.324Z,28.9
2019-04-03T03:42:07.986Z,28.8
2019-04-03T03:42:56.055Z,28.8
2019-04-03T03:43:48.481Z,28.8
2019-04-03T03:44:37.007Z,28.7
2019-04-03T03:45:30.489Z,28.6
2019-04-03T03:46:16.041Z,28.6
2019-04-03T03:47:10.724Z,28.5
2019-04-03T03:47:55.891Z,28.4
2019-04-03T03:48:54.482Z,28.4
2019-04-03T03:49:36.667Z,28.3
2019-04-03T03:50:33.682Z,28.2
2019-04-03T03:51:15.940Z,28.1
2019-04-03T03:52:12.567Z,28.1
2019-04-03T03:52:56.200Z,27.9
2019-04-03T03:53:53.650Z,27.9
2019-04-03T03:55:32.207Z,27.8
2019-04-03T03:56:16.782Z,27.6
2019-04-03T03:57:12.806Z,27.6
2019-04-03T03:57:55.558Z,27.4
2019-04-03T03:58:51.979Z,27.4
2019-04-03T03:59:36.594Z,27.3
2019-04-03T04:00:31.877Z,27.2
2019-04-03T04:01:16.412Z,27.1
2019-04-03T04:02:13.806Z,27.1
2019-04-03T04:02:57.138Z,26.9
2019-04-03T04:03:51.416Z,26.9
2019-04-03T04:04:37.868Z,26.8
2019-04-03T04:05:32.593Z,26.7
2019-04-03T04:06:16.896Z,26.6
2019-04-03T04:07:12.684Z,26.5
2019-04-03T04:07:57.854Z,26.4
2019-04-03T04:08:53.084Z,25.8
2019-04-03T04:09:38.011Z,25.3
2019-04-03T04:10:38.789Z,24.9
2019-04-03T04:11:18.193Z,24.7
2019-04-03T04:12:13.488Z,24.6
2019-04-03T04:12:57.252Z,24.5
2019-04-03T04:13:53.970Z,24.4
2019-04-03T04:14:38.314Z,24.3
2019-04-03T04:15:33.505Z,24.3
2019-04-03T04:16:17.916Z,24.2
2019-04-03T04:17:22.143Z,24.1
2019-04-03T04:18:00.351Z,24.1
2019-04-03T04:18:48.413Z,23.9
2019-04-03T04:19:41.200Z,23.6
2019-04-03T04:20:28.587Z,23.4
2019-04-03T04:21:20.220Z,23.4
2019-04-03T04:22:09.243Z,23.3
2019-04-03T04:23:01.357Z,23.2
2019-04-03T04:23:48.269Z,23.2
2019-04-03T04:24:38.465Z,23.1
2019-04-03T04:25:32.534Z,23.1
2019-04-03T04:26:17.347Z,23
2019-04-03T04:27:11.414Z,23
2019-04-03T04:27:59.119Z,23
2019-04-03T04:28:49.127Z,22.9
2019-04-03T04:29:37.724Z,22.8
2019-04-03T04:30:28.536Z,22.7
2019-04-03T04:31:19.994Z,22.6
2019-04-03T04:32:08.924Z,22.6
2019-04-03T04:32:58.903Z,22.6
2019-04-03T04:33:51.811Z,22.6
2019-04-03T04:34:39.325Z,22.5
2019-04-03T04:35:30.811Z,22.5
2019-04-03T04:36:18.747Z,22.5
2019-04-03T04:37:11.067Z,22.4
2019-04-03T04:38:03.071Z,22.4
2019-04-03T04:38:48.081Z,22.4
2019-04-03T04:39:38.673Z,22.4
2019-04-03T04:40:32.179Z,23.2
2019-04-03T04:41:19.206Z,24.6
2019-04-03T04:42:13.293Z,25.5
2019-04-03T04:42:59.123Z,26.4
2019-04-03T04:43:50.160Z,27.3
2019-04-03T04:44:42.270Z,28.1
2019-04-03T04:45:29.555Z,28.8
2019-04-03T04:46:22.525Z,29.2
2019-04-03T04:47:09.740Z,29.5
2019-04-03T04:47:59.572Z,29.8
2019-04-03T04:48:49.594Z,30
2019-04-03T04:49:39.350Z,30.3
2019-04-03T04:50:33.168Z,30.3
2019-04-03T04:51:19.530Z,29.3
2019-04-03T04:52:10.140Z,28.8
2019-04-03T04:53:03.501Z,28.6
2019-04-03T04:53:49.236Z,28.3
2019-04-03T04:54:39.172Z,28.1
2019-04-03T04:55:37.035Z,28
2019-04-03T04:56:19.828Z,27.9
2019-04-03T04:57:59.340Z,27.8
2019-04-03T04:58:51.938Z,27.6
2019-04-03T04:59:47.497Z,27.6
2019-04-03T05:00:33.132Z,27.2
2019-04-03T05:01:23.416Z,26.8
2019-04-03T05:02:10.939Z,26.4
2019-04-03T05:03:03.824Z,26.3
2019-04-03T05:03:51.910Z,26.1
2019-04-03T05:04:40.202Z,26
2019-04-03T05:05:37.364Z,25.9
2019-04-03T05:06:21.754Z,25.9
2019-04-03T05:07:11.954Z,25.8
2019-04-03T05:08:04.144Z,25.8
2019-04-03T05:08:50.959Z,25.7
2019-04-03T05:09:43.896Z,25.7
2019-04-03T05:10:30.801Z,25.6
2019-04-03T05:11:20.558Z,25.6
2019-04-03T05:12:15.257Z,25.6
2019-04-03T05:13:01.032Z,25.5
2019-04-03T05:13:54.142Z,25.5
2019-04-03T05:14:41.189Z,25.5
2019-04-03T05:15:33.045Z,25.4
2019-04-03T05:16:28.589Z,25.4
2019-04-03T05:17:11.001Z,25.4
2019-04-03T05:18:05.061Z,25.3
2019-04-03T05:18:51.477Z,25.3
2019-04-03T05:19:42.231Z,25.3
2019-04-03T05:20:33.048Z,25.2
2019-04-03T05:21:25.377Z,25.1
2019-04-03T05:22:12.046Z,25.1
2019-04-03T05:23:03.800Z,25.1
2019-04-03T05:23:51.876Z,25.1
2019-04-03T05:24:42.578Z,25
2019-04-03T05:25:35.987Z,25
2019-04-03T05:26:25.725Z,24.9
2019-04-03T05:27:15.856Z,24.9
2019-04-03T05:28:02.748Z,24.9
2019-04-03T05:29:07.700Z,24.8
2019-04-03T05:29:42.680Z,24.8
2019-04-03T05:30:32.277Z,24.8
2019-04-03T05:31:23.522Z,24.8
2019-04-03T05:32:17.567Z,24.7
2019-04-03T05:33:03.539Z,24.7
2019-04-03T05:33:52.190Z,24.7
2019-04-03T05:34:46.424Z,24.4
2019-04-03T05:35:33.258Z,24.9
2019-04-03T05:36:26.392Z,26
2019-04-03T05:37:21.895Z,26.8
2019-04-03T05:38:02.281Z,27.7
2019-04-03T05:38:57.922Z,28.3
2019-04-03T05:39:42.905Z,29.1
2019-04-03T05:40:34.371Z,28.8
2019-04-03T05:41:24.131Z,28.4
2019-04-03T05:42:13.509Z,28.3
2019-04-03T05:43:06.505Z,28.2
2019-04-03T05:43:53.168Z,28.1
2019-04-03T05:44:43.060Z,28.1
2019-04-03T05:45:36.560Z,28
2019-04-03T05:46:27.229Z,27.9
2019-04-03T05:47:16.012Z,27.9
2019-04-03T05:48:56.679Z,27.8
2019-04-03T05:49:47.270Z,27.7
2019-04-03T05:50:39.079Z,27.6
2019-04-03T05:51:23.166Z,27.5
2019-04-03T05:52:13.246Z,27.4
2019-04-03T05:53:07.581Z,27.4
2019-04-03T05:53:56.829Z,27.3
2019-04-03T05:54:50.929Z,27.3
2019-04-03T05:55:34.727Z,27.1
2019-04-03T05:56:23.797Z,27.1
2019-04-03T05:57:16.911Z,27
2019-04-03T05:59:05.871Z,26.9
2019-04-03T05:59:17.408Z,26.8
2019-04-03T06:00:14.144Z,26.8
2019-04-03T06:01:17.058Z,26.7
2019-04-03T06:01:53.994Z,26.6
2019-04-03T06:02:37.334Z,26.6
2019-04-03T06:05:24.951Z,26.3
2019-04-03T06:06:08.611Z,26.3
2019-04-03T06:06:58.366Z,26.2
2019-04-03T06:07:52.286Z,26.1
2019-04-03T06:08:44.182Z,26.1
2019-04-03T06:09:32.002Z,26
2019-04-03T06:10:18.852Z,25.9
2019-04-03T06:11:17.029Z,25.9
2019-04-03T06:12:00.023Z,25.8
2019-04-03T06:12:53.826Z,25.8
2019-04-03T06:13:40.379Z,25.7
2019-04-03T06:14:31.635Z,25.6
2019-04-03T06:15:24.115Z,25.6
2019-04-03T06:16:10.758Z,25.5
2019-04-03T06:17:03.977Z,25.2
2019-04-03T06:17:57.500Z,26.1
2019-04-03T06:18:40.831Z,27
2019-04-03T06:19:29.812Z,27.7
2019-04-03T06:20:20.635Z,28.5
2019-04-03T06:21:10.480Z,29.3
2019-04-03T06:21:59.689Z,29.6
2019-04-03T06:22:54.710Z,29.8
2019-04-03T06:23:40.756Z,30.1
2019-04-03T06:24:34.065Z,30.3
2019-04-03T06:25:23.515Z,30.6
2019-04-03T06:26:11.322Z,30.8
2019-04-03T06:27:00.288Z,30.1
2019-04-03T06:27:52.322Z,29.5
2019-04-03T06:28:47.790Z,29.3
2019-04-03T06:29:30.857Z,29.1
2019-04-03T06:30:20.509Z,28.9
2019-04-03T06:31:13.679Z,28.8
2019-04-03T06:32:07.077Z,28.7
2019-04-03T06:32:54.342Z,28.6
2019-04-03T06:33:43.785Z,28.5
2019-04-03T06:34:31.581Z,28.4
2019-04-03T06:35:22.726Z,28.4
2019-04-03T06:36:11.786Z,28.4
2019-04-03T06:37:01.962Z,28.3
2019-04-03T06:37:55.240Z,28.3
2019-04-03T06:38:41.041Z,28.3
2019-04-03T06:39:40.410Z,28.2
2019-04-03T06:40:22.183Z,28.1
2019-04-03T06:41:15.505Z,28.1
2019-04-03T06:42:02.277Z,28
2019-04-03T06:42:53.097Z,28
2019-04-03T06:43:42.553Z,27.9
2019-04-03T06:44:32.086Z,27.9
2019-04-03T06:46:13.139Z,27.8
2019-04-03T06:47:07.873Z,27.7
2019-04-03T06:47:52.306Z,27.6
2019-04-03T06:48:44.591Z,27.6
2019-04-03T06:49:32.861Z,27.5
2019-04-03T06:50:26.288Z,27.4
2019-04-03T06:51:11.893Z,27.4
2019-04-03T06:52:02.718Z,27.3
2019-04-03T06:52:55.241Z,27.3
2019-04-03T06:53:42.603Z,27.1
2019-04-03T06:54:36.281Z,27.1
2019-04-03T06:55:26.853Z,27
2019-04-03T06:56:15.804Z,26.9
2019-04-03T06:57:03.166Z,26.9
2019-04-03T06:57:53.167Z,26.8
2019-04-03T06:58:52.030Z,26.7
2019-04-03T06:59:32.674Z,26.6
2019-04-03T07:00:22.870Z,26.6
2019-04-03T07:01:12.303Z,26.5
2019-04-03T07:02:03.555Z,26.4
2019-04-03T07:02:53.129Z,26.3
2019-04-03T07:05:19.196Z,26.2
2019-04-03T07:06:09.014Z,26.1
2019-04-03T07:07:02.723Z,26
2019-04-03T07:07:48.531Z,25.9
2019-04-03T07:08:47.620Z,25.9
2019-04-03T07:09:44.305Z,25.6
2019-04-03T07:10:32.685Z,25.8
2019-04-03T07:11:08.437Z,26.8
2019-04-03T07:12:01.465Z,27.4
2019-04-03T07:12:52.280Z,28
2019-04-03T07:13:39.879Z,28.8
2019-04-03T07:14:33.300Z,29.4
2019-04-03T07:15:20.454Z,29.7
2019-04-03T07:16:10.248Z,29.9
2019-04-03T07:17:08.249Z,30.2
2019-04-03T07:17:49.872Z,30.5
2019-04-03T07:18:43.492Z,30.8
2019-04-03T07:19:30.426Z,31
2019-04-03T07:20:28.653Z,30.1
2019-04-03T07:21:09.971Z,29.8
2019-04-03T07:22:03.842Z,29.5
2019-04-03T07:22:51.036Z,29.4
2019-04-03T07:23:40.569Z,29.2
2019-04-03T07:24:33.005Z,29.1
2019-04-03T07:25:21.383Z,29
2019-04-03T07:26:13.411Z,28.9
2019-04-03T07:27:00.848Z,28.9
2019-04-03T07:27:51.172Z,28.8
2019-04-03T07:28:45.181Z,28.8
2019-04-03T07:29:34.474Z,28.7
2019-04-03T07:30:28.141Z,28.6
2019-04-03T07:31:11.383Z,28.6
2019-04-03T07:32:03.951Z,28.6
2019-04-03T07:32:51.190Z,28.5
2019-04-03T07:33:42.311Z,28.4
2019-04-03T07:34:35.485Z,28.4
2019-04-03T07:35:21.168Z,28.3
2019-04-03T07:36:15.613Z,28.3
2019-04-03T07:37:00.248Z,28.3
2019-04-03T07:37:55.797Z,28.2
2019-04-03T07:38:41.663Z,28.1
2019-04-03T07:39:30.988Z,28.1
2019-04-03T07:40:24.882Z,28
2019-04-03T07:41:11.993Z,27.9
2019-04-03T07:42:51.668Z,27.8
2019-04-03T07:43:41.950Z,27.7
2019-04-03T07:44:36.410Z,27.6
2019-04-03T07:45:21.386Z,27.5
2019-04-03T07:46:12.230Z,27.4
2019-04-03T07:47:07.795Z,27.4
2019-04-03T07:47:51.803Z,27.3
2019-04-03T07:48:46.183Z,27.2
2019-04-03T07:49:31.561Z,27.1
2019-04-03T07:50:23.381Z,27.1
2019-04-03T07:51:15.424Z,26.9
2019-04-03T07:52:02.567Z,26.9
2019-04-03T07:52:56.370Z,26.8
2019-04-03T07:53:42.287Z,26.7
2019-04-03T07:54:35.235Z,26.6
2019-04-03T07:55:28.427Z,26.6
2019-04-03T07:56:12.592Z,26.5
2019-04-03T07:57:05.420Z,26.4
2019-04-03T07:57:52.786Z,26.4
2019-04-03T07:58:43.337Z,26.3
2019-04-03T07:59:37.093Z,26.3
2019-04-03T08:00:23.894Z,26.1
2019-04-03T08:01:21.266Z,26.1
2019-04-03T08:02:03.635Z,26
2019-04-03T08:02:57.996Z,25.9
2019-04-03T08:03:44.013Z,25.5
2019-04-03T08:05:46.045Z,26
2019-04-03T08:06:06.708Z,28.3
2019-04-03T08:06:47.524Z,28.6
2019-04-03T08:07:37.803Z,29.2
2019-04-03T08:08:29.354Z,29.6
2019-04-03T08:09:19.211Z,30
2019-04-03T08:10:09.017Z,30.3
2019-04-03T08:11:03.039Z,30.6
2019-04-03T08:11:48.252Z,31
2019-04-03T08:12:43.899Z,31.3
2019-04-03T08:13:29.386Z,30.6
2019-04-03T08:14:22.576Z,30.3
2019-04-03T08:15:09.236Z,30.3
2019-04-03T08:15:59.804Z,30.1
2019-04-03T08:16:59.026Z,30.1
2019-04-03T08:17:39.179Z,29.9
2019-04-03T08:18:31.061Z,29.8
2019-04-03T08:19:23.526Z,29.8
2019-04-03T08:20:10.325Z,29.7
2019-04-03T08:21:07.616Z,29.6
2019-04-03T08:21:50.266Z,29.6
2019-04-03T08:22:43.643Z,29.5
2019-04-03T08:23:29.906Z,29.5
2019-04-03T08:24:20.310Z,29.4
2019-04-03T08:25:15.224Z,29.4
2019-04-03T08:26:03.302Z,29.3
2019-04-03T08:26:54.548Z,29.3
2019-04-03T08:27:40.245Z,29.2
2019-04-03T08:28:38.116Z,29.1
2019-04-03T08:29:21.012Z,29
2019-04-03T08:30:15.138Z,28.9
2019-04-03T08:31:00.435Z,28.9
2019-04-03T08:31:56.558Z,28.8
2019-04-03T08:32:42.075Z,28.8
2019-04-03T08:33:38.618Z,28.6
2019-04-03T08:34:26.218Z,28.6
2019-04-03T08:35:30.786Z,28.4
2019-04-03T08:36:02.209Z,28.4
2019-04-03T08:36:51.349Z,28.3
2019-04-03T08:37:46.789Z,28.2
2019-04-03T08:38:31.861Z,28.1
2019-04-03T08:39:26.209Z,28
2019-04-03T08:40:11.123Z,27.9
2019-04-03T08:41:51.587Z,27.7
2019-04-03T08:42:41.651Z,27.6
2019-04-03T08:43:35.542Z,27.5
2019-04-03T08:44:20.480Z,27.4
2019-04-03T08:45:15.911Z,27.4
2019-04-03T08:46:01.337Z,27.3
2019-04-03T08:46:52.992Z,27.2
2019-04-03T08:47:49.229Z,27.1
2019-04-03T08:48:31.112Z,27
2019-04-03T08:49:21.305Z,26.9
2019-04-03T08:50:12.129Z,26.9
2019-04-03T08:51:08.750Z,26.8
2019-04-03T08:51:52.373Z,26.7
2019-04-03T08:52:47.216Z,26.6
2019-04-03T08:53:32.521Z,26.5
2019-04-03T08:54:22.735Z,26.4
2019-04-03T08:55:16.614Z,26.4
2019-04-03T08:56:04.498Z,26.3
2019-04-03T08:56:56.117Z,26.3
2019-04-03T08:57:46.823Z,25.8
2019-04-03T08:58:35.842Z,26.4
2019-04-03T08:59:23.149Z,27.4
2019-04-03T09:00:13.364Z,28.3
2019-04-03T09:01:06.401Z,29.1
2019-04-03T09:01:57.181Z,29.8
2019-04-03T09:02:47.446Z,30.2
2019-04-03T09:03:31.892Z,30.5
2019-04-03T09:04:26.600Z,30.8
2019-04-03T09:05:22.372Z,31.3
2019-04-03T09:06:04.844Z,31.6
2019-04-03T09:06:56.563Z,30.8
2019-04-03T09:07:44.103Z,30.6
2019-04-03T09:08:35.327Z,30.5
2019-04-03T09:09:21.820Z,30.4
2019-04-03T09:10:13.602Z,30.4
2019-04-03T09:11:07.151Z,30.3
2019-04-03T09:11:52.883Z,30.2
2019-04-03T09:12:46.534Z,30.1
2019-04-03T09:13:33.438Z,30.1
2019-04-03T09:14:29.968Z,30
2019-04-03T09:15:13.736Z,29.9
2019-04-03T09:16:10.974Z,29.9
2019-04-03T09:16:54.103Z,29.8
2019-04-03T09:17:44.678Z,29.8
2019-04-03T09:18:40.919Z,29.7
2019-04-03T09:19:25.355Z,29.6
2019-04-03T09:20:17.900Z,29.6
2019-04-03T09:21:04.248Z,29.5
2019-04-03T09:21:59.222Z,29.4
2019-04-03T09:22:44.054Z,29.4
2019-04-03T09:23:33.605Z,29.3
2019-04-03T09:24:24.869Z,29.2
2019-04-03T09:25:17.558Z,29.1
2019-04-03T09:26:07.594Z,29
2019-04-03T09:26:53.600Z,28.9
2019-04-03T09:27:47.763Z,28.8
2019-04-03T09:28:34.102Z,28.8
2019-04-03T09:29:22.988Z,28.6
2019-04-03T09:30:18.429Z,28.5
2019-04-03T09:31:04.534Z,28.4
2019-04-03T09:32:02.517Z,28.3
2019-04-03T09:32:45.995Z,28.2
2019-04-03T09:33:38.010Z,28.1
2019-04-03T09:34:35.817Z,28
2019-04-03T09:35:15.536Z,27.9
2019-04-03T09:36:55.311Z,27.8
2019-04-03T09:37:50.437Z,27.6
2019-04-03T09:38:43.804Z,27.5
2019-04-03T09:39:25.572Z,27.4
2019-04-03T09:40:20.321Z,27.3
2019-04-03T09:41:05.767Z,27.3
2019-04-03T09:41:57.337Z,27.1
2019-04-03T09:42:44.161Z,27.1
2019-04-03T09:43:39.003Z,27
2019-04-03T09:44:29.024Z,26.9
2019-04-03T09:45:15.097Z,26.8
2019-04-03T09:46:08.910Z,26.8
2019-04-03T09:46:55.659Z,26.7
2019-04-03T09:47:45.793Z,26.6
2019-04-03T09:48:39.215Z,26.5
2019-04-03T09:49:27.157Z,26.4
2019-04-03T09:50:23.777Z,26.3
2019-04-03T09:51:09.848Z,26.3
2019-04-03T09:52:01.406Z,25.8
2019-04-03T09:53:05.446Z,26.6
2019-04-03T09:53:36.543Z,27.9
2019-04-03T09:54:31.111Z,28.5
2019-04-03T09:55:16.423Z,29.3
2019-04-03T09:56:11.473Z,29.8
2019-04-03T09:57:13.478Z,30.3
2019-04-03T09:57:47.730Z,30.8
2019-04-03T09:58:40.754Z,31.1
2019-04-03T09:59:27.582Z,31.4
2019-04-03T10:00:19.861Z,31.6
2019-04-03T10:01:06.387Z,30.6
2019-04-03T10:01:57.523Z,30.6
2019-04-03T10:02:48.817Z,30.6
2019-04-03T10:03:40.241Z,30.6
2019-04-03T10:06:37.274Z,30.4
2019-04-03T10:07:12.386Z,30.3
2019-04-03T10:08:00.413Z,30.2
2019-04-03T10:08:49.678Z,30.1
2019-04-03T10:09:48.361Z,30.1
2019-04-03T10:10:32.527Z,30
2019-04-03T10:11:42.440Z,30
2019-04-03T10:12:10.311Z,29.9
2019-04-03T10:13:02.581Z,29.9
2019-04-03T10:13:51.031Z,29.8
2019-04-03T10:14:40.277Z,29.7
2019-04-03T10:15:34.104Z,29.6
2019-04-03T10:16:23.517Z,29.6
2019-04-03T10:17:15.880Z,29.4
2019-04-03T10:17:59.835Z,29.4
2019-04-03T10:18:51.934Z,29.3
2019-04-03T10:19:40.277Z,29.2
2019-04-03T10:20:30.257Z,29.1
2019-04-03T10:21:39.579Z,29
2019-04-03T10:22:10.753Z,28.9
2019-04-03T10:23:03.680Z,28.8
2019-04-03T10:23:49.270Z,28.7
2019-04-03T10:24:41.372Z,28.6
2019-04-03T10:25:31.125Z,28.4
2019-04-03T10:26:20.781Z,28.4
2019-04-03T10:27:14.490Z,28.3
2019-04-03T10:28:01.055Z,28.2
2019-04-03T10:28:56.410Z,28.1
2019-04-03T10:29:58.324Z,27.9
2019-04-03T10:32:11.339Z,27.7
2019-04-03T10:33:06.124Z,27.6
2019-04-03T10:33:51.290Z,27.4
2019-04-03T10:34:44.613Z,27.4
2019-04-03T10:35:50.073Z,27.3
2019-04-03T10:36:35.751Z,27.1
2019-04-03T10:37:16.113Z,27.1
2019-04-03T10:38:02.478Z,27
2019-04-03T10:39:06.900Z,26.9
2019-04-03T10:39:52.701Z,26.8
2019-04-03T10:40:33.603Z,26.8
2019-04-03T10:41:22.088Z,26.7
2019-04-03T10:42:13.027Z,26.6
2019-04-03T10:43:11.643Z,26.5
2019-04-03T10:43:52.748Z,26.4
2019-04-03T10:44:42.261Z,26.4
2019-04-03T10:45:32.018Z,26.3
2019-04-03T10:46:26.399Z,26.2
2019-04-03T10:47:12.752Z,25.8
2019-04-03T10:48:04.861Z,26.5
2019-04-03T10:48:52.321Z,27.8
2019-04-03T10:49:43.277Z,28.7
2019-04-03T10:50:33.143Z,29.4
2019-04-03T10:51:23.028Z,29.9
2019-04-03T10:52:16.680Z,30.4
2019-04-03T10:53:02.313Z,30.8
2019-04-03T10:53:58.086Z,31.2
2019-04-03T10:54:45.358Z,31.6
2019-04-03T10:55:36.870Z,31.3
2019-04-03T10:56:22.960Z,30.7
2019-04-03T10:57:13.312Z,30.8
2019-04-03T10:58:12.852Z,30.8
2019-04-03T10:59:18.973Z,30.6
2019-04-03T10:59:43.768Z,30.5
2019-04-03T11:00:37.046Z,30.5
2019-04-03T11:01:22.880Z,30.4
2019-04-03T11:02:13.073Z,30.3
2019-04-03T11:03:02.587Z,30.3
2019-04-03T11:03:53.013Z,30.2
2019-04-03T11:04:41.570Z,30.1
2019-04-03T11:05:34.252Z,30.1
2019-04-03T11:06:24.130Z,30
2019-04-03T11:07:12.303Z,29.9
2019-04-03T11:08:18.034Z,29.9
2019-04-03T11:08:53.762Z,29.8
2019-04-03T11:09:43.387Z,29.8
2019-04-03T11:10:34.240Z,29.7
2019-04-03T11:11:23.707Z,29.6
2019-04-03T11:12:17.009Z,29.4
2019-04-03T11:13:07.712Z,29.4
2019-04-03T11:13:53.542Z,29.3
2019-04-03T11:14:47.669Z,29.2
2019-04-03T11:15:34.830Z,29.1
2019-04-03T11:16:24.129Z,29
2019-04-03T11:17:31.780Z,28.9
2019-04-03T11:18:05.379Z,28.8
2019-04-03T11:19:29.131Z,28.7
2019-04-03T11:19:50.069Z,28.5
2019-04-03T11:20:41.974Z,28.5
2019-04-03T11:21:39.314Z,28.4
2019-04-03T11:24:45.444Z,28.3
2019-04-03T11:24:58.607Z,27.9
2019-04-03T11:25:56.481Z,27.9
2019-04-03T11:26:39.884Z,27.8
2019-04-03T11:27:54.672Z,27.6
2019-04-03T11:28:19.923Z,27.5
2019-04-03T11:29:13.882Z,27.4
2019-04-03T11:30:18.114Z,27.3
2019-04-03T11:30:53.619Z,27.3
2019-04-03T11:31:51.085Z,27.2
2019-04-03T11:32:31.676Z,27.1
2019-04-03T11:33:22.430Z,27